Time;durP1;ratioP1;P1;durP2;ratioP2;P2;SDS_P1;SDS_P2;PMS_P1;PMS_P2;Temp;Humidity;BMP_temperature;BMP_pressure;BME280_temperature;BME280_humidity;BME280_pressure;Samples;Min_cycle;Max_cycle;Signal;HPM_P1;HPM_P2
2024/03/23 06:00:18;;;;;;;23.67;10.50;;;;;;;;;;6017927;23;20451;-75
2024/03/23 06:02:46;;;;;;;18.20;9.10;;;;;;;;;;4917646;29;20815;-76
2024/03/23 06:05:12;;;;;;;16.93;8.60;;;;;;;;;;4934751;29;20555;-75
2024/03/23 06:07:38;;;;;;;13.77;6.47;;;;;;;;;;4934875;29;20451;-75
2024/03/23 06:10:05;;;;;;;10.93;5.20;;;;;;;;;;4937509;29;20422;-76
2024/03/23 06:12:31;;;;;;;7.10;4.10;;;;;;;;;;4917787;29;20437;-77
2024/03/23 06:14:57;;;;;;;6.03;4.20;;;;;;;;;;4961998;23;20587;-72
2024/03/23 06:17:23;;;;;;;7.40;3.80;;;;;;;;;;4954476;28;20911;-73
2024/03/23 06:19:49;;;;;;;9.00;3.70;;;;;;;;;;4954410;28;20495;-72
2024/03/23 06:22:15;;;;;;;5.00;3.90;;;;;;;;;;4954755;28;20540;-72
2024/03/23 06:24:41;;;;;;;5.53;3.53;;;;;;;;;;4954733;28;21003;-72
2024/03/23 06:27:07;;;;;;;4.60;2.90;;;;;;;;;;4954684;28;20455;-72
2024/03/23 06:29:33;;;;;;;7.50;3.90;;;;;;;;;;4954496;28;20412;-72
2024/03/23 06:31:59;;;;;;;5.43;3.53;;;;;;;;;;4954379;28;20408;-74
2024/03/23 06:34:25;;;;;;;5.13;2.80;;;;;;;;;;4955129;28;20457;-72
2024/03/23 06:36:51;;;;;;;8.30;3.03;;;;;;;;;;4954050;28;20413;-72
2024/03/23 06:39:17;;;;;;;5.20;3.30;;;;;;;;;;4954466;28;20441;-74
2024/03/23 06:41:43;;;;;;;4.23;2.47;;;;;;;;;;4954306;28;20954;-72
2024/03/23 06:44:09;;;;;;;5.17;3.00;;;;;;;;;;4954289;28;20889;-72
2024/03/23 06:46:35;;;;;;;3.93;2.37;;;;;;;;;;4954078;28;20444;-74
2024/03/23 06:49:01;;;;;;;2.70;2.07;;;;;;;;;;4955251;28;20420;-73
2024/03/23 06:51:27;;;;;;;3.93;2.10;;;;;;;;;;4958209;28;20420;-73
2024/03/23 06:53:53;;;;;;;3.40;1.80;;;;;;;;;;4957956;28;20460;-73
2024/03/23 06:56:19;;;;;;;3.27;1.80;;;;;;;;;;4956479;29;20444;-72
2024/03/23 06:58:45;;;;;;;1.50;1.33;;;;;;;;;;4957596;28;20975;-72
2024/03/23 07:01:11;;;;;;;1.43;1.40;;;;;;;;;;4957661;28;20543;-71
2024/03/23 07:03:37;;;;;;;1.53;1.40;;;;;;;;;;4956475;29;20461;-74
2024/03/23 07:06:03;;;;;;;1.70;1.30;;;;;;;;;;4957199;28;21023;-74
2024/03/23 07:08:29;;;;;;;1.40;1.10;;;;;;;;;;4962611;28;20488;-75
2024/03/23 07:10:55;;;;;;;1.40;1.23;;;;;;;;;;4952120;28;20945;-74
2024/03/23 07:13:21;;;;;;;2.00;1.07;;;;;;;;;;4943973;29;20925;-72
2024/03/23 07:15:52;;;;;;;1.00;0.90;;;;;;;;;;4944159;29;20453;-74
2024/03/23 07:18:18;;;;;;;0.93;0.83;;;;;;;;;;4945614;29;20409;-73
2024/03/23 07:20:52;;;;;;;1.60;1.00;;;;;;;;;;4943397;29;20421;-74
2024/03/23 07:23:18;;;;;;;1.33;1.20;;;;;;;;;;4940383;29;20909;-73
2024/03/23 07:25:44;;;;;;;2.13;0.90;;;;;;;;;;4938633;29;20437;-73
2024/03/23 07:28:10;;;;;;;0.93;0.83;;;;;;;;;;4938183;29;20425;-73
2024/03/23 07:30:36;;;;;;;1.20;1.13;;;;;;;;;;4938407;29;20410;-72
2024/03/23 07:33:02;;;;;;;1.10;1.00;;;;;;;;;;4937085;29;20504;-71
2024/03/23 07:35:28;;;;;;;1.20;1.10;;;;;;;;;;4938071;29;20476;-73
2024/03/23 07:37:54;;;;;;;0.90;0.80;;;;;;;;;;4939042;29;20477;-74
2024/03/23 07:40:19;;;;;;;1.00;0.90;;;;;;;;;;4938003;29;20425;-72
2024/03/23 07:42:46;;;;;;;1.43;1.30;;;;;;;;;;4938381;29;20417;-73
2024/03/23 07:45:11;;;;;;;0.90;0.80;;;;;;;;;;4939050;29;20469;-73
2024/03/23 07:47:37;;;;;;;3.70;0.90;;;;;;;;;;4938811;29;20433;-74
2024/03/23 07:50:03;;;;;;;1.13;1.03;;;;;;;;;;4944896;29;20424;-72
2024/03/23 07:52:29;;;;;;;2.10;1.00;;;;;;;;;;4949748;29;20563;-73
2024/03/23 07:54:55;;;;;;;1.53;1.20;;;;;;;;;;4947650;29;20473;-74
2024/03/23 07:57:21;;;;;;;1.17;0.90;;;;;;;;;;4939400;29;20542;-75
2024/03/23 07:59:47;;;;;;;1.47;1.43;;;;;;;;;;4938208;29;20438;-73
2024/03/23 08:02:13;;;;;;;1.20;1.13;;;;;;;;;;4958131;29;20515;-71
2024/03/23 08:04:39;;;;;;;0.90;0.80;;;;;;;;;;4950906;29;20448;-70
2024/03/23 08:07:05;;;;;;;1.90;0.93;;;;;;;;;;4941675;29;20414;-71
2024/03/23 08:09:31;;;;;;;1.80;1.10;;;;;;;;;;4942677;29;20428;-71
2024/03/23 08:11:57;;;;;;;1.10;1.00;;;;;;;;;;4943314;29;20414;-71
2024/03/23 08:14:23;;;;;;;1.13;1.03;;;;;;;;;;4938215;29;20465;-72
2024/03/23 08:16:51;;;;;;;1.13;1.03;;;;;;;;;;4942444;29;20456;-73
2024/03/23 08:19:17;;;;;;;1.03;1.00;;;;;;;;;;4952737;29;20456;-71
2024/03/23 08:21:43;;;;;;;1.10;1.00;;;;;;;;;;4948266;29;20421;-70
2024/03/23 08:24:09;;;;;;;1.93;1.20;;;;;;;;;;4957439;29;20784;-70
2024/03/23 08:26:37;;;;;;;1.30;1.20;;;;;;;;;;4953165;28;20531;-70
2024/03/23 08:29:03;;;;;;;2.93;1.77;;;;;;;;;;4946767;29;20417;-73
2024/03/23 08:31:29;;;;;;;1.20;1.10;;;;;;;;;;4945272;29;20426;-74
2024/03/23 08:33:55;;;;;;;1.73;1.10;;;;;;;;;;4942654;29;20479;-72
2024/03/23 08:36:21;;;;;;;3.30;1.80;;;;;;;;;;4944119;29;20441;-77
2024/03/23 08:38:47;;;;;;;1.23;1.00;;;;;;;;;;4952122;29;20417;-77
2024/03/23 08:41:13;;;;;;;1.10;1.00;;;;;;;;;;4944760;29;20905;-78
2024/03/23 08:43:40;;;;;;;1.43;1.33;;;;;;;;;;4942581;29;20425;-76
2024/03/23 08:46:06;;;;;;;3.90;1.20;;;;;;;;;;4940401;29;20437;-78
2024/03/23 08:48:33;;;;;;;2.83;1.10;;;;;;;;;;4940155;29;20425;-78
2024/03/23 08:51:09;;;;;;;2.83;1.17;;;;;;;;;;4937812;29;20509;-76
2024/03/23 08:53:38;;;;;;;9.00;1.43;;;;;;;;;;4938293;29;20465;-79
2024/03/23 08:56:04;;;;;;;1.57;1.20;;;;;;;;;;4938219;29;20438;-78
2024/03/23 08:58:31;;;;;;;5.53;2.03;;;;;;;;;;4938792;29;20422;-75
2024/03/23 09:01:03;;;;;;;2.93;1.70;;;;;;;;;;4945716;29;20429;-77
2024/03/23 09:03:29;;;;;;;13.30;3.47;;;;;;;;;;4956881;29;20496;-75
2024/03/23 09:05:55;;;;;;;5.33;2.63;;;;;;;;;;4968577;28;20437;-77
2024/03/23 09:08:21;;;;;;;5.07;2.30;;;;;;;;;;4959680;28;20412;-77
2024/03/23 09:10:48;;;;;;;6.93;2.60;;;;;;;;;;4956122;28;20417;-78
2024/03/23 09:13:14;;;;;;;10.03;3.67;;;;;;;;;;4934702;29;20425;-75
2024/03/23 09:15:50;;;;;;;4.50;2.80;;;;;;;;;;4936249;29;20504;-74
2024/03/23 09:18:16;;;;;;;6.90;2.73;;;;;;;;;;4942704;29;20412;-74
2024/03/23 09:20:42;;;;;;;6.53;2.60;;;;;;;;;;4952681;29;20508;-73
2024/03/23 09:23:08;;;;;;;10.80;2.83;;;;;;;;;;4935810;29;20421;-73
2024/03/23 09:25:38;;;;;;;13.57;3.43;;;;;;;;;;4936023;29;20492;-73
2024/03/23 09:28:04;;;;;;;9.67;3.20;;;;;;;;;;4935738;29;20501;-72
2024/03/23 09:30:30;;;;;;;8.07;3.50;;;;;;;;;;4936043;29;20406;-74
2024/03/23 09:32:56;;;;;;;4.67;2.77;;;;;;;;;;4935666;29;20417;-73
2024/03/23 09:35:22;;;;;;;8.07;4.83;;;;;;;;;;4935954;29;20524;-72
2024/03/23 09:37:48;;;;;;;7.43;2.97;;;;;;;;;;4936385;29;20409;-72
2024/03/23 09:40:14;;;;;;;6.80;3.30;;;;;;;;;;4935843;29;20410;-74
2024/03/23 09:42:46;;;;;;;10.67;3.17;;;;;;;;;;4935903;29;20457;-74
2024/03/23 09:45:17;;;;;;;6.77;2.80;;;;;;;;;;4934572;29;20465;-76
2024/03/23 09:47:43;;;;;;;6.60;3.30;;;;;;;;;;4935664;29;20414;-74
2024/03/23 09:50:09;;;;;;;7.27;3.27;;;;;;;;;;4934312;29;20682;-73
2024/03/23 09:52:35;;;;;;;6.83;3.00;;;;;;;;;;4935675;29;20449;-75
2024/03/23 09:55:01;;;;;;;8.40;3.50;;;;;;;;;;4935118;29;20473;-76
2024/03/23 09:57:27;;;;;;;5.50;3.00;;;;;;;;;;4934724;29;20492;-74
2024/03/23 09:59:54;;;;;;;3.73;2.37;;;;;;;;;;4937628;29;20762;-73
2024/03/23 10:02:21;;;;;;;5.80;3.30;;;;;;;;;;4936465;29;20783;-75
2024/03/23 10:04:47;;;;;;;6.97;3.47;;;;;;;;;;4936531;29;20437;-74
2024/03/23 10:07:13;;;;;;;12.27;3.77;;;;;;;;;;4935370;29;20422;-74
2024/03/23 10:09:39;;;;;;;4.97;3.00;;;;;;;;;;4942704;29;20425;-74
2024/03/23 10:12:13;;;;;;;14.30;4.33;;;;;;;;;;4959717;29;20452;-74
2024/03/23 10:14:40;;;;;;;8.50;3.23;;;;;;;;;;4963801;28;20990;-73
2024/03/23 10:17:19;;;;;;;8.57;3.33;;;;;;;;;;4965073;29;20444;-77
2024/03/23 10:19:49;;;;;;;5.20;2.83;;;;;;;;;;4948154;29;20472;-75
2024/03/23 10:22:24;;;;;;;7.87;4.37;;;;;;;;;;4942827;29;20512;-74
2024/03/23 10:24:51;;;;;;;8.70;3.53;;;;;;;;;;4942096;29;20484;-76
2024/03/23 10:27:18;;;;;;;14.00;4.57;;;;;;;;;;4970551;29;20471;-78
2024/03/23 10:29:45;;;;;;;10.33;4.20;;;;;;;;;;4952225;29;20608;-76
2024/03/23 10:32:15;;;;;;;8.00;4.33;;;;;;;;;;4956040;29;20822;-77
2024/03/23 10:34:41;;;;;;;9.57;3.80;;;;;;;;;;4958144;28;20455;-72
2024/03/23 10:37:07;;;;;;;10.63;3.93;;;;;;;;;;4959652;29;20758;-76
2024/03/23 10:39:34;;;;;;;10.20;4.13;;;;;;;;;;4953250;29;20418;-77
2024/03/23 10:42:04;;;;;;;10.70;3.73;;;;;;;;;;4941072;29;20442;-78
2024/03/23 10:44:30;;;;;;;11.17;3.70;;;;;;;;;;4948385;29;20420;-76
2024/03/23 10:46:59;;;;;;;10.10;3.93;;;;;;;;;;4954694;28;20436;-78
2024/03/23 10:49:35;;;;;;;14.83;4.27;;;;;;;;;;4950111;28;20414;-77
2024/03/23 10:52:02;;;;;;;9.70;4.27;;;;;;;;;;4953494;29;20432;-78
2024/03/23 10:54:29;;;;;;;8.93;4.00;;;;;;;;;;4943395;29;20464;-78
2024/03/23 10:57:13;;;;;;;7.00;3.43;;;;;;;;;;4947612;29;20416;-78
2024/03/23 10:59:40;;;;;;;6.60;3.60;;;;;;;;;;4957819;29;20471;-77
2024/03/23 11:02:09;;;;;;;14.97;4.90;;;;;;;;;;4957478;29;20421;-77
2024/03/23 11:04:38;;;;;;;13.00;4.33;;;;;;;;;;4959637;29;20409;-78
2024/03/23 11:07:24;;;;;;;18.30;5.67;;;;;;;;;;4958578;28;20446;-78
2024/03/23 11:09:52;;;;;;;13.93;4.90;;;;;;;;;;4945910;29;20429;-81
2024/03/23 11:12:24;;;;;;;10.23;4.53;;;;;;;;;;4943202;29;20450;-83
2024/03/23 11:14:50;;;;;;;6.80;4.17;;;;;;;;;;4950119;29;20481;-79
2024/03/23 11:17:20;;;;;;;7.90;3.73;;;;;;;;;;4959451;29;20476;-80
2024/03/23 11:19:54;;;;;;;7.40;3.10;;;;;;;;;;4966660;29;20413;-76
2024/03/23 11:22:41;;;;;;;4.00;3.13;;;;;;;;;;4973122;28;20393;-79
2024/03/23 11:25:13;;;;;;;7.93;3.50;;;;;;;;;;4976251;29;20508;-79
2024/03/23 11:27:39;;;;;;;7.60;3.80;;;;;;;;;;4975484;29;20504;-78
2024/03/23 11:30:18;;;;;;;7.80;3.20;;;;;;;;;;4972816;29;20431;-77
2024/03/23 11:32:45;;;;;;;5.67;3.50;;;;;;;;;;4969278;29;20792;-80
2024/03/23 11:35:11;;;;;;;4.90;3.10;;;;;;;;;;4953198;28;20546;-78
2024/03/23 11:37:37;;;;;;;3.87;2.47;;;;;;;;;;4966417;29;20468;-80
2024/03/23 11:40:19;;;;;;;6.77;2.57;;;;;;;;;;4951406;29;20980;-78
2024/03/23 11:42:45;;;;;;;6.90;3.60;;;;;;;;;;4942714;29;20416;-78
2024/03/23 11:45:12;;;;;;;4.13;2.13;;;;;;;;;;4947022;29;20505;-78
2024/03/23 11:47:37;;;;;;;10.90;3.03;;;;;;;;;;4960439;29;20449;-79
2024/03/23 11:50:03;;;;;;;6.30;2.67;;;;;;;;;;4945848;29;20492;-75
2024/03/23 11:52:30;;;;;;;5.73;2.23;;;;;;;;;;4946580;28;20912;-74
2024/03/23 11:55:07;;;;;;;6.43;2.60;;;;;;;;;;4946182;29;20477;-74
2024/03/23 11:57:33;;;;;;;5.77;2.67;;;;;;;;;;4948320;28;20836;-77
2024/03/23 11:59:59;;;;;;;12.83;2.97;;;;;;;;;;4942650;29;20789;-76
2024/03/23 12:02:25;;;;;;;5.60;2.53;;;;;;;;;;4945219;29;20418;-76
2024/03/23 12:04:52;;;;;;;6.50;2.60;;;;;;;;;;4943016;29;20444;-76
2024/03/23 12:07:20;;;;;;;6.20;2.57;;;;;;;;;;4954330;28;20924;-76
2024/03/23 12:09:46;;;;;;;7.97;2.53;;;;;;;;;;4936829;29;20517;-75
2024/03/23 12:12:16;;;;;;;6.17;2.50;;;;;;;;;;4935511;29;20430;-76
2024/03/23 12:17:15;;;;;;;8.17;2.30;;;;;;;;;;4946854;28;20537;-76
2024/03/23 12:19:44;;;;;;;9.33;2.20;;;;;;;;;;4945455;29;20793;-75
2024/03/23 12:22:10;;;;;;;10.97;2.87;;;;;;;;;;4935064;29;20449;-76
2024/03/23 12:24:36;;;;;;;4.50;2.13;;;;;;;;;;4948118;29;20455;-75
2024/03/23 12:27:03;;;;;;;10.77;2.03;;;;;;;;;;4954551;28;20435;-76
2024/03/23 12:29:31;;;;;;;4.43;2.40;;;;;;;;;;4939208;28;20418;-77
2024/03/23 12:31:57;;;;;;;15.33;2.00;;;;;;;;;;4937550;29;20779;-76
2024/03/23 12:34:23;;;;;;;12.23;2.40;;;;;;;;;;4934495;29;20461;-78
2024/03/23 12:36:49;;;;;;;8.00;2.37;;;;;;;;;;4935088;29;20540;-78
2024/03/23 12:39:15;;;;;;;4.13;2.00;;;;;;;;;;4933609;29;20774;-77
2024/03/23 12:41:41;;;;;;;10.37;2.83;;;;;;;;;;4935228;29;20781;-78
2024/03/23 12:44:09;;;;;;;5.67;2.20;;;;;;;;;;4933814;29;20426;-78
2024/03/23 12:46:35;;;;;;;4.93;2.13;;;;;;;;;;4934199;29;20437;-77
2024/03/23 12:49:00;;;;;;;9.17;2.97;;;;;;;;;;4935327;29;20421;-78
2024/03/23 12:51:26;;;;;;;11.13;3.70;;;;;;;;;;4934860;29;20429;-76
2024/03/23 12:53:52;;;;;;;6.33;2.70;;;;;;;;;;4935090;29;20472;-78
2024/03/23 12:56:18;;;;;;;9.30;3.20;;;;;;;;;;4934649;29;20437;-78
2024/03/23 12:58:44;;;;;;;7.17;2.90;;;;;;;;;;4934587;29;20454;-77
2024/03/23 13:01:10;;;;;;;6.77;2.83;;;;;;;;;;4933821;29;20418;-77
2024/03/23 13:03:36;;;;;;;6.47;2.50;;;;;;;;;;4936016;29;20422;-77
2024/03/23 13:06:07;;;;;;;10.57;3.40;;;;;;;;;;4936284;29;20441;-78
2024/03/23 13:08:33;;;;;;;8.73;2.40;;;;;;;;;;4936405;29;20785;-76
2024/03/23 13:10:59;;;;;;;10.13;2.70;;;;;;;;;;4935667;29;20422;-77
2024/03/23 13:13:25;;;;;;;15.43;3.60;;;;;;;;;;4935611;29;20813;-78
2024/03/23 13:15:51;;;;;;;12.70;2.63;;;;;;;;;;4934360;29;20884;-78
2024/03/23 13:18:17;;;;;;;9.60;2.63;;;;;;;;;;4934379;29;20445;-78
2024/03/23 13:20:43;;;;;;;11.13;3.30;;;;;;;;;;4934814;29;20422;-78
2024/03/23 13:23:09;;;;;;;10.93;3.20;;;;;;;;;;4934965;29;20754;-78
2024/03/23 13:25:35;;;;;;;7.37;2.63;;;;;;;;;;4933073;29;20584;-78
2024/03/23 13:28:02;;;;;;;17.37;3.97;;;;;;;;;;4934648;29;20473;-78
2024/03/23 13:30:28;;;;;;;11.00;2.77;;;;;;;;;;4934312;29;20847;-77
2024/03/23 13:32:54;;;;;;;10.87;3.20;;;;;;;;;;4934908;29;20430;-78
2024/03/23 13:35:20;;;;;;;12.17;3.20;;;;;;;;;;4937261;29;20469;-77
2024/03/23 13:37:46;;;;;;;7.37;3.40;;;;;;;;;;4935238;29;20443;-77
2024/03/23 13:40:12;;;;;;;7.40;2.73;;;;;;;;;;4934222;29;20425;-77
2024/03/23 13:42:38;;;;;;;4.17;2.60;;;;;;;;;;4933441;29;20464;-77
2024/03/23 13:45:04;;;;;;;9.73;3.10;;;;;;;;;;4934759;29;20505;-78
2024/03/23 13:47:30;;;;;;;3.97;2.30;;;;;;;;;;4935062;29;20500;-77
2024/03/23 13:49:56;;;;;;;5.37;2.30;;;;;;;;;;4934556;29;20496;-78
2024/03/23 13:52:26;;;;;;;8.60;3.13;;;;;;;;;;4934305;29;20452;-77
2024/03/23 13:54:52;;;;;;;9.20;2.00;;;;;;;;;;4934844;29;20469;-77
2024/03/23 13:57:21;;;;;;;5.50;2.33;;;;;;;;;;4935380;29;20420;-78
2024/03/23 13:59:47;;;;;;;13.80;2.77;;;;;;;;;;4934893;29;20426;-78
2024/03/23 14:02:14;;;;;;;6.27;2.30;;;;;;;;;;4936146;29;20414;-78
2024/03/23 14:04:40;;;;;;;9.83;2.17;;;;;;;;;;4936056;29;20422;-79
2024/03/23 14:07:07;;;;;;;1.77;1.63;;;;;;;;;;4935262;29;20425;-77
2024/03/23 14:09:33;;;;;;;8.60;2.30;;;;;;;;;;4936216;29;20421;-79
2024/03/23 14:12:00;;;;;;;5.13;1.90;;;;;;;;;;4936363;29;20422;-79
2024/03/23 14:14:26;;;;;;;8.63;2.27;;;;;;;;;;4934100;29;20495;-79
2024/03/23 14:16:53;;;;;;;4.10;1.97;;;;;;;;;;4933406;29;20481;-79
2024/03/23 14:19:19;;;;;;;12.40;3.10;;;;;;;;;;4935140;29;20414;-78
2024/03/23 14:21:45;;;;;;;8.77;2.47;;;;;;;;;;4935452;29;20414;-79
2024/03/23 14:24:11;;;;;;;5.63;2.43;;;;;;;;;;4936912;29;20826;-79
2024/03/23 14:26:37;;;;;;;5.33;2.17;;;;;;;;;;4938185;29;20932;-79
2024/03/23 14:29:03;;;;;;;4.57;1.93;;;;;;;;;;4935650;29;20437;-79
2024/03/23 14:31:29;;;;;;;5.10;2.00;;;;;;;;;;4936616;29;20510;-80
2024/03/23 14:33:55;;;;;;;3.30;2.07;;;;;;;;;;4939009;29;20469;-80
2024/03/23 14:36:21;;;;;;;4.60;1.70;;;;;;;;;;4949067;29;20440;-80
2024/03/23 14:38:48;;;;;;;2.40;1.70;;;;;;;;;;4953549;29;20464;-80
2024/03/23 14:41:14;;;;;;;2.47;2.03;;;;;;;;;;4947943;29;20418;-81
2024/03/23 14:43:40;;;;;;;2.73;2.53;;;;;;;;;;4938498;29;20433;-79
2024/03/23 14:46:09;;;;;;;2.57;1.33;;;;;;;;;;4932380;29;20477;-78
2024/03/23 14:48:36;;;;;;;3.63;1.83;;;;;;;;;;4932382;29;20454;-78
2024/03/23 14:51:05;;;;;;;4.30;1.80;;;;;;;;;;4933920;29;20437;-78
2024/03/23 14:53:34;;;;;;;2.17;1.60;;;;;;;;;;4934243;29;20418;-78
2024/03/23 14:56:01;;;;;;;3.57;2.03;;;;;;;;;;4934507;29;20940;-78
2024/03/23 14:58:27;;;;;;;5.50;1.80;;;;;;;;;;4933075;29;20972;-78
2024/03/23 15:00:53;;;;;;;7.47;1.63;;;;;;;;;;4932522;29;20425;-79
2024/03/23 15:03:19;;;;;;;6.33;2.40;;;;;;;;;;4934537;29;20417;-79
2024/03/23 15:05:55;;;;;;;5.40;2.17;;;;;;;;;;4934450;29;20520;-78
2024/03/23 15:08:21;;;;;;;3.87;2.13;;;;;;;;;;4934725;29;20420;-79
2024/03/23 15:10:47;;;;;;;5.90;2.07;;;;;;;;;;4937094;29;20418;-79
2024/03/23 15:13:14;;;;;;;9.00;2.33;;;;;;;;;;4939109;29;20413;-79
2024/03/23 15:15:43;;;;;;;5.43;2.30;;;;;;;;;;4938130;29;20477;-79
2024/03/23 15:18:09;;;;;;;1.93;1.83;;;;;;;;;;4938504;29;20414;-79
2024/03/23 15:20:35;;;;;;;2.07;1.70;;;;;;;;;;4938343;29;20605;-79
2024/03/23 15:23:02;;;;;;;2.97;1.83;;;;;;;;;;4938335;29;20417;-79
2024/03/23 15:25:28;;;;;;;4.00;1.67;;;;;;;;;;4936501;29;20446;-79
2024/03/23 15:27:54;;;;;;;6.40;1.40;;;;;;;;;;4935981;29;20944;-79
2024/03/23 15:30:20;;;;;;;2.73;1.60;;;;;;;;;;4937425;29;20875;-78
2024/03/23 15:32:47;;;;;;;2.23;1.37;;;;;;;;;;4935927;29;20518;-78
2024/03/23 15:35:13;;;;;;;1.80;1.40;;;;;;;;;;4937579;29;20718;-77
2024/03/23 15:37:39;;;;;;;1.60;1.30;;;;;;;;;;4941730;29;20414;-78
2024/03/23 15:40:06;;;;;;;5.40;1.47;;;;;;;;;;4938252;29;20469;-80
2024/03/23 15:42:32;;;;;;;6.80;1.50;;;;;;;;;;4937461;29;20516;-78
2024/03/23 15:44:58;;;;;;;4.33;1.90;;;;;;;;;;4937506;29;20922;-78
2024/03/23 15:47:24;;;;;;;3.47;1.30;;;;;;;;;;4937093;29;20928;-78
2024/03/23 15:49:53;;;;;;;3.20;1.33;;;;;;;;;;4936868;29;20465;-78
2024/03/23 15:52:19;;;;;;;2.23;1.40;;;;;;;;;;4937058;29;20425;-79
2024/03/23 15:54:45;;;;;;;1.27;1.27;;;;;;;;;;4936920;29;20457;-79
2024/03/23 15:57:11;;;;;;;2.20;1.60;;;;;;;;;;4936857;29;20417;-78
2024/03/23 15:59:40;;;;;;;3.97;1.60;;;;;;;;;;4936905;29;20417;-78
2024/03/23 16:02:06;;;;;;;1.60;1.37;;;;;;;;;;4937125;29;20441;-78
2024/03/23 16:04:32;;;;;;;5.70;1.50;;;;;;;;;;4936227;29;20422;-77
2024/03/23 16:06:58;;;;;;;5.57;1.50;;;;;;;;;;4937280;29;20456;-78
2024/03/23 16:09:24;;;;;;;3.60;1.47;;;;;;;;;;4936860;29;20458;-78
2024/03/23 16:11:50;;;;;;;8.90;2.03;;;;;;;;;;4935359;29;20418;-79
2024/03/23 16:14:16;;;;;;;3.67;1.77;;;;;;;;;;4935807;29;20472;-79
2024/03/23 16:16:42;;;;;;;1.63;1.50;;;;;;;;;;4934375;29;20454;-79
2024/03/23 16:19:08;;;;;;;2.90;1.73;;;;;;;;;;4939105;29;20596;-80
